Decoded Metar for LCPH (PAPHOS in CYPRUS) (IATA:PFO) | Meteo·Mobile Aviation Weather
aviador You're here:

LCPH Decoded Metar

PAPHOS in CYPRUS
Report Time2018-12-17 13:30:00
UTC Time2018-12-17 14:03:42
Flight Rules vfr VFR
Wind140° at 05 kt
W.Decomp.*RWY 11: 4.5 kt HW 2.2 kt RCW
W.Rank140° ranks 23
Current wind is below 140° avg. (7.9)
Visibility9999 m
Phenomena:N/A
Clouds:Few TCU 025 Hf
Few CB 030 Hf
Scattered 050 Hf
Expected CloudBase > 1,600 ft AGL from Temp-Dew spread
CeilingNone
Temp18°C (ISA +3)
Dew Point14°C (78% RH)
AAT17.5°C
QNH1013 hPa
Density Alt597 ft
Elevation26 ft
Report Wrong Elevation
Raw Report
METAR LCPH 171330Z 14005KT 9999 FEW025TCU FEW030CB SCT050 18/14 Q1013=

Extra information for LCPH:More info

Metar Taf Metar & Taf Last 4 Metars F.Rules Stats Wind Profile Meteogram Temp Stats Airport Information Weather charts Add Link Nearby VenuesMetar ALERT Operation Metar Decoded Social comments